Check out our new BloomSky Weather System.

Active alerts

Houston, TX
  Details for Houston, TX River Flood Warning  +1 additional alert
Fort Bend, TX
  Details for Fort Bend, TX River Flood Warning  +1 additional alert


Thunder radar  blitzortung!


Rain radar more information rain snow radar


Visit our other weather sites:

Template documentation
and downloads

And another site



Weather Underground History page Text

Daily Summary for February 14, 2018 Units:  English    Metric   Both
« Previous Day
Next Day »
Daily Weekly Monthly Yearly Custom
  High: Low: Average:
Temperature: TemperatureF °F 51.3 °F 65.2 °F
Dew Point: DewpointF °F 51.3 °F 63.1 °F
Humidity: Humidity % 73 % 93 %
Wind Speed: WindSpeedMPH mph 0.0 mph 2.3 mph
Wind Gust: WindSpeedGustMPH mph - -
Wind:- - South
Pressure: PressureIn in 30.14 in -
Precipitation: 0.01 in    
Historical Graphs
 
 
Tabular Data for February 14, 2018
Time Temperature Dew Point Pressure Wind Wind Speed Wind Gust Humidity Rainfall Rate (Hourly)
TemperatureF °F DewpointF °F PressureIn in Calm     Humidity % HourlyPrecipIn in
00:02 51.3 °F 51.3 °F 30.33 in Calm   4.0 mph 100 % 0.00 in
00:07 51.3 °F 51.3 °F 30.33 in Calm   4.0 mph 100 % 0.00 in
00:12 51.3 °F 51.3 °F 30.33 in Calm   4.0 mph 100 % 0.00 in
00:17 51.3 °F 51.3 °F 30.33 in Calm   1.0 mph 100 % 0.00 in
00:22 51.3 °F 51.3 °F 30.32 in Calm   2.0 mph 100 % 0.00 in
00:27 51.3 °F 51.3 °F 30.32 in Calm   2.0 mph 100 % 0.00 in
00:32 51.3 °F 51.3 °F 30.32 in ENE 1.0 mph 2.0 mph 100 % 0.00 in
00:37 51.4 °F 51.4 °F 30.32 in North 1.0 mph 2.0 mph 100 % 0.00 in
00:42 51.4 °F 51.4 °F 30.32 in Calm   2.0 mph 100 % 0.00 in
00:47 51.4 °F 51.4 °F 30.32 in Calm   2.0 mph 100 % 0.00 in
00:52 51.4 °F 51.4 °F 30.32 in Calm   1.0 mph 100 % 0.00 in
00:57 51.4 °F 51.4 °F 30.32 in Calm   1.0 mph 100 % 0.00 in
01:02 51.4 °F 51.4 °F 30.32 in Calm   1.0 mph 100 % 0.00 in
01:07 51.6 °F 51.6 °F 30.32 in Calm   1.0 mph 100 % 0.00 in
01:12 51.6 °F 51.6 °F 30.32 in Calm   1.0 mph 100 % 0.00 in
01:17 51.6 °F 51.6 °F 30.32 in Calm   1.0 mph 100 % 0.00 in
01:22 51.6 °F 51.6 °F 30.32 in Calm   1.0 mph 100 % 0.00 in
01:27 51.6 °F 51.6 °F 30.32 in Calm   1.0 mph 100 % 0.00 in
01:32 51.8 °F 51.8 °F 30.31 in Calm   1.0 mph 100 % 0.00 in
01:37 51.8 °F 51.8 °F 30.31 in Calm   1.0 mph 100 % 0.00 in
01:42 51.8 °F 51.8 °F 30.31 in NW 1.0 mph 1.0 mph 100 % 0.00 in
01:47 52.0 °F 52.0 °F 30.31 in Calm   2.0 mph 100 % 0.00 in
01:52 52.0 °F 52.0 °F 30.31 in Calm   2.0 mph 100 % 0.00 in
01:57 52.0 °F 52.0 °F 30.31 in Calm   2.0 mph 100 % 0.00 in
02:02 52.0 °F 52.0 °F 30.30 in NW 1.0 mph 2.0 mph 100 % 0.00 in
02:07 52.0 °F 52.0 °F 30.30 in NNW 1.0 mph 2.0 mph 100 % 0.00 in
02:12 52.2 °F 52.2 °F 30.30 in Calm   2.0 mph 100 % 0.00 in
02:17 52.2 °F 52.2 °F 30.30 in Calm   2.0 mph 100 % 0.00 in
02:22 52.2 °F 52.2 °F 30.30 in Calm   2.0 mph 100 % 0.00 in
02:27 52.2 °F 52.2 °F 30.30 in Calm   1.0 mph 100 % 0.00 in
02:32 52.2 °F 52.2 °F 30.30 in Calm   1.0 mph 100 % 0.00 in
02:37 52.2 °F 52.2 °F 30.30 in Calm   1.0 mph 100 % 0.00 in
02:42 52.2 °F 52.2 °F 30.29 in Calm   1.0 mph 100 % 0.00 in
02:47 52.2 °F 52.2 °F 30.29 in Calm   2.0 mph 100 % 0.00 in
02:52 52.2 °F 52.2 °F 30.29 in Calm   2.0 mph 100 % 0.00 in
02:57 52.3 °F 52.3 °F 30.29 in Calm   2.0 mph 100 % 0.00 in
03:02 52.2 °F 52.2 °F 30.29 in Calm   1.0 mph 100 % 0.00 in
03:07 52.3 °F 52.3 °F 30.29 in Calm   1.0 mph 100 % 0.00 in
03:12 52.3 °F 52.3 °F 30.29 in Calm   1.0 mph 100 % 0.00 in
03:17 52.3 °F 52.3 °F 30.29 in Calm   1.0 mph 100 % 0.00 in
03:22 52.3 °F 52.3 °F 30.29 in Calm   1.0 mph 100 % 0.00 in
03:27 52.3 °F 52.3 °F 30.28 in Calm   1.0 mph 100 % 0.00 in
03:32 52.3 °F 52.3 °F 30.28 in Calm   1.0 mph 100 % 0.00 in
03:37 52.3 °F 52.3 °F 30.28 in Calm     100 % 0.00 in
03:42 52.3 °F 52.3 °F 30.28 in Calm     100 % 0.00 in
03:47 52.5 °F 52.5 °F 30.28 in Calm     100 % 0.00 in
03:52 52.5 °F 52.5 °F 30.27 in Calm     100 % 0.00 in
03:57 52.5 °F 52.5 °F 30.28 in Calm     100 % 0.00 in
04:02 52.5 °F 52.5 °F 30.28 in Calm   1.0 mph 100 % 0.00 in
04:07 52.7 °F 52.7 °F 30.28 in Calm   1.0 mph 100 % 0.00 in
04:12 52.9 °F 52.9 °F 30.28 in Calm   1.0 mph 100 % 0.00 in
04:17 52.9 °F 52.9 °F 30.28 in Calm   1.0 mph 100 % 0.00 in
04:22 52.9 °F 52.9 °F 30.27 in Calm   1.0 mph 100 % 0.00 in
04:27 52.9 °F 52.9 °F 30.27 in Calm   1.0 mph 100 % 0.00 in
04:32 53.1 °F 53.1 °F 30.27 in SE 1.0 mph 1.0 mph 100 % 0.00 in
04:37 53.1 °F 53.1 °F 30.27 in Calm   1.0 mph 100 % 0.00 in
04:42 53.2 °F 53.2 °F 30.27 in Calm   1.0 mph 100 % 0.00 in
04:47 53.2 °F 53.2 °F 30.27 in Calm   1.0 mph 100 % 0.01 in
04:52 53.4 °F 53.4 °F 30.27 in Calm   1.0 mph 100 % 0.01 in
04:57 53.6 °F 53.6 °F 30.27 in Calm   1.0 mph 100 % 0.01 in
05:02 53.8 °F 53.8 °F 30.27 in Calm   1.0 mph 100 % 0.01 in
05:07 53.8 °F 53.8 °F 30.27 in Calm   1.0 mph 100 % 0.01 in
05:12 54.0 °F 54.0 °F 30.27 in Calm   1.0 mph 100 % 0.01 in
05:17 54.0 °F 54.0 °F 30.27 in Calm   1.0 mph 100 % 0.01 in
05:22 54.0 °F 54.0 °F 30.27 in East 2.0 mph 2.0 mph 100 % 0.01 in
05:27 54.0 °F 54.0 °F 30.27 in Calm   4.0 mph 100 % 0.01 in
05:32 54.1 °F 54.1 °F 30.27 in Calm   4.0 mph 100 % 0.01 in
05:37 54.1 °F 54.1 °F 30.27 in Calm   4.0 mph 100 % 0.01 in
05:42 54.3 °F 54.3 °F 30.27 in Calm   1.0 mph 100 % 0.01 in
05:47 54.3 °F 54.3 °F 30.27 in Calm   1.0 mph 100 % 0.00 in
05:52 54.5 °F 54.5 °F 30.27 in NNW 1.0 mph 1.0 mph 100 % 0.00 in
05:57 54.5 °F 54.5 °F 30.27 in Calm   1.0 mph 100 % 0.00 in
06:02 54.7 °F 54.7 °F 30.27 in Calm   1.0 mph 100 % 0.00 in
06:07 54.7 °F 54.7 °F 30.27 in Calm   1.0 mph 100 % 0.00 in
06:12 54.7 °F 54.7 °F 30.27 in Calm   1.0 mph 100 % 0.00 in
06:17 54.9 °F 54.9 °F 30.27 in Calm   1.0 mph 100 % 0.00 in
06:22 54.9 °F 54.9 °F 30.27 in Calm   1.0 mph 100 % 0.00 in
06:27 54.9 °F 54.9 °F 30.28 in NNW 1.0 mph 1.0 mph 100 % 0.00 in
06:32 55.0 °F 55.0 °F 30.28 in NNW 1.0 mph 1.0 mph 100 % 0.00 in
06:37 55.0 °F 55.0 °F 30.28 in Calm   1.0 mph 100 % 0.00 in
06:42 55.0 °F 55.0 °F 30.28 in NNW 1.0 mph 1.0 mph 100 % 0.00 in
06:47 54.9 °F 54.9 °F 30.29 in Calm   1.0 mph 100 % 0.00 in
06:52 54.9 °F 54.9 °F 30.29 in Calm   1.0 mph 100 % 0.00 in
06:57 54.9 °F 54.9 °F 30.29 in Calm   1.0 mph 100 % 0.00 in
07:02 54.9 °F 54.9 °F 30.29 in Calm   1.0 mph 100 % 0.00 in
07:07 55.0 °F 55.0 °F 30.29 in Calm     100 % 0.00 in
07:12 55.0 °F 55.0 °F 30.29 in Calm     100 % 0.00 in
07:17 55.0 °F 55.0 °F 30.29 in Calm     100 % 0.00 in
07:23 55.0 °F 55.0 °F 30.28 in Calm     100 % 0.00 in
07:27 55.2 °F 55.2 °F 30.29 in Calm     100 % 0.00 in
07:33 55.2 °F 55.2 °F 30.29 in Calm     100 % 0.00 in
07:38 55.4 °F 55.4 °F 30.28 in Calm     100 % 0.00 in
07:43 55.6 °F 55.6 °F 30.29 in Calm     100 % 0.00 in
07:48 55.8 °F 55.8 °F 30.29 in Calm     100 % 0.00 in
07:53 55.8 °F 55.8 °F 30.29 in Calm   1.0 mph 100 % 0.00 in
07:58 55.9 °F 55.9 °F 30.28 in Calm   1.0 mph 100 % 0.00 in
08:03 55.9 °F 55.9 °F 30.29 in Calm   1.0 mph 100 % 0.00 in
08:08 56.1 °F 56.1 °F 30.29 in NNW 1.0 mph 1.0 mph 100 % 0.00 in
08:13 56.1 °F 56.1 °F 30.29 in Calm   1.0 mph 100 % 0.00 in
08:18 56.3 °F 56.3 °F 30.29 in Calm   3.0 mph 100 % 0.00 in
08:23 56.5 °F 56.5 °F 30.29 in East 1.0 mph 3.0 mph 100 % 0.00 in
08:28 56.7 °F 56.7 °F 30.30 in Calm   3.0 mph 100 % 0.00 in
08:33 56.8 °F 56.8 °F 30.30 in Calm   2.0 mph 100 % 0.00 in
08:38 57.2 °F 57.2 °F 30.30 in Calm   2.0 mph 100 % 0.00 in
08:43 57.7 °F 57.7 °F 30.30 in Calm   1.0 mph 100 % 0.00 in
08:48 57.9 °F 57.9 °F 30.30 in Calm   1.0 mph 100 % 0.00 in
08:53 58.5 °F 58.5 °F 30.30 in East 1.0 mph 1.0 mph 100 % 0.00 in
08:58 59.0 °F 59.0 °F 30.31 in Calm   2.0 mph 100 % 0.00 in
09:03 59.4 °F 59.4 °F 30.31 in Calm   2.0 mph 100 % 0.00 in
09:08 59.9 °F 59.9 °F 30.31 in SE 1.0 mph 2.0 mph 100 % 0.00 in
09:13 60.4 °F 60.4 °F 30.31 in Calm   2.0 mph 100 % 0.00 in
09:18 60.8 °F 60.8 °F 30.31 in Calm   3.0 mph 100 % 0.00 in
09:23 61.2 °F 61.2 °F 30.31 in East 1.0 mph 3.0 mph 100 % 0.00 in
09:28 61.7 °F 61.7 °F 30.30 in SE 2.0 mph 3.0 mph 100 % 0.00 in
09:33 62.2 °F 62.2 °F 30.30 in ESE 1.0 mph 2.0 mph 100 % 0.00 in
09:38 62.8 °F 62.8 °F 30.31 in SE 1.0 mph 3.0 mph 100 % 0.00 in
09:43 63.7 °F 63.7 °F 30.30 in SSW 1.0 mph 3.0 mph 100 % 0.00 in
09:48 64.0 °F 64.0 °F 30.30 in South 1.0 mph 3.0 mph 100 % 0.00 in
09:53 64.8 °F 64.8 °F 30.30 in ESE 2.0 mph 3.0 mph 100 % 0.00 in
09:58 65.5 °F 65.5 °F 30.30 in SSE 3.0 mph 3.0 mph 100 % 0.00 in
10:03 66.4 °F 66.4 °F 30.30 in SE 5.0 mph 5.0 mph 100 % 0.00 in
10:08 66.7 °F 66.7 °F 30.30 in SSE 3.0 mph 6.0 mph 100 % 0.00 in
10:13 67.5 °F 67.5 °F 30.30 in SE 2.0 mph 7.0 mph 100 % 0.00 in
10:18 67.8 °F 67.8 °F 30.30 in SSW 3.0 mph 7.0 mph 100 % 0.00 in
10:23 68.2 °F 68.2 °F 30.30 in ESE 3.0 mph 11.0 mph 100 % 0.00 in
10:28 68.4 °F 68.4 °F 30.30 in SW 6.0 mph 11.0 mph 100 % 0.00 in
10:33 68.5 °F 68.5 °F 30.30 in SSW 2.0 mph 11.0 mph 100 % 0.00 in
10:38 68.7 °F 68.7 °F 30.29 in SSE 3.0 mph 11.0 mph 100 % 0.00 in
10:43 68.9 °F 68.9 °F 30.29 in SE 3.0 mph 11.0 mph 100 % 0.00 in
10:48 69.1 °F 69.1 °F 30.29 in ESE 7.0 mph 11.0 mph 100 % 0.00 in
10:53 69.3 °F 69.3 °F 30.29 in SE 6.0 mph 12.0 mph 100 % 0.00 in
10:58 69.3 °F 69.3 °F 30.29 in South 6.0 mph 12.0 mph 100 % 0.00 in
11:03 69.4 °F 69.4 °F 30.29 in SSW 7.0 mph 12.0 mph 100 % 0.00 in
11:08 69.6 °F 69.6 °F 30.28 in South 11.0 mph 11.0 mph 100 % 0.00 in
11:13 70.0 °F 70.0 °F 30.28 in SSE 3.0 mph 12.0 mph 100 % 0.00 in
11:18 70.2 °F 70.2 °F 30.28 in South 3.0 mph 12.0 mph 100 % 0.00 in
11:23 70.5 °F 70.5 °F 30.28 in SSE 6.0 mph 12.0 mph 100 % 0.00 in
11:28 70.5 °F 70.5 °F 30.28 in SSW 8.0 mph 12.0 mph 100 % 0.00 in
11:33 70.7 °F 70.7 °F 30.28 in SSW 7.0 mph 12.0 mph 100 % 0.00 in
11:38 70.9 °F 70.9 °F 30.27 in ESE 4.0 mph 12.0 mph 100 % 0.00 in
11:43 70.9 °F 70.9 °F 30.27 in South 5.0 mph 11.0 mph 100 % 0.00 in
11:48 71.2 °F 71.2 °F 30.27 in SSE 6.0 mph 11.0 mph 100 % 0.00 in
11:53 71.1 °F 71.1 °F 30.27 in SSE 5.0 mph 14.0 mph 100 % 0.00 in
11:58 71.2 °F 71.2 °F 30.27 in SSW 3.0 mph 14.0 mph 100 % 0.00 in
12:03 71.6 °F 71.6 °F 30.27 in SSE 3.0 mph 14.0 mph 100 % 0.00 in
12:08 71.8 °F 71.8 °F 30.27 in SSW 9.0 mph 12.0 mph 100 % 0.00 in
12:13 72.0 °F 71.6 °F 30.27 in SSW 3.0 mph 11.0 mph 99 % 0.00 in
12:18 72.1 °F 71.6 °F 30.27 in SSW 6.0 mph 11.0 mph 98 % 0.00 in
12:23 72.3 °F 71.4 °F 30.27 in SSW 2.0 mph 11.0 mph 97 % 0.00 in
12:28 72.5 °F 71.6 °F 30.27 in South 3.0 mph 11.0 mph 97 % 0.00 in
12:33 72.7 °F 71.4 °F 30.27 in SSE 7.0 mph 11.0 mph 96 % 0.00 in
12:38 72.7 °F 71.2 °F 30.26 in SSW 6.0 mph 8.0 mph 95 % 0.00 in
12:43 73.0 °F 71.2 °F 30.26 in ESE 7.0 mph 10.0 mph 94 % 0.00 in
12:48 73.2 °F 71.1 °F 30.26 in SW 4.0 mph 10.0 mph 93 % 0.00 in
12:53 73.6 °F 71.4 °F 30.25 in SE 6.0 mph 11.0 mph 93 % 0.00 in
12:58 74.3 °F 72.1 °F 30.25 in SSE 6.0 mph 13.0 mph 93 % 0.00 in
13:03 74.8 °F 72.0 °F 30.25 in SSW 2.0 mph 13.0 mph 91 % 0.00 in
13:08 75.0 °F 71.6 °F 30.25 in SW 8.0 mph 13.0 mph 89 % 0.00 in
13:13 75.2 °F 71.8 °F 30.24 in South 7.0 mph 10.0 mph 89 % 0.00 in
13:18 75.6 °F 72.1 °F 30.24 in SSE 3.0 mph 10.0 mph 89 % 0.00 in
13:23 76.5 °F 73.0 °F 30.23 in SSE 5.0 mph 12.0 mph 89 % 0.00 in
13:28 77.0 °F 72.5 °F 30.23 in SSW 4.0 mph 12.0 mph 86 % 0.00 in
13:33 77.4 °F 72.9 °F 30.23 in SW 7.0 mph 12.0 mph 86 % 0.00 in
13:38 77.4 °F 72.1 °F 30.23 in SSW 7.0 mph 10.0 mph 84 % 0.00 in
13:43 77.2 °F 71.6 °F 30.22 in SSW 7.0 mph 10.0 mph 83 % 0.00 in
13:48 77.4 °F 72.5 °F 30.22 in SSE 7.0 mph 10.0 mph 85 % 0.00 in
13:53 77.4 °F 71.4 °F 30.22 in ESE 5.0 mph 10.0 mph 82 % 0.00 in
13:58 77.7 °F 71.8 °F 30.22 in SE 8.0 mph 12.0 mph 82 % 0.00 in
14:03 78.1 °F 71.8 °F 30.21 in SSW 4.0 mph 12.0 mph 81 % 0.00 in
14:08 78.1 °F 72.1 °F 30.21 in ESE 4.0 mph 12.0 mph 82 % 0.00 in
14:13 78.4 °F 72.5 °F 30.21 in SE 3.0 mph 11.0 mph 82 % 0.00 in
14:18 79.0 °F 72.3 °F 30.21 in SSE 5.0 mph 9.0 mph 80 % 0.00 in
14:23 79.0 °F 72.0 °F 30.20 in South 6.0 mph 9.0 mph 79 % 0.00 in
14:28 78.6 °F 71.6 °F 30.20 in SSE 6.0 mph 9.0 mph 79 % 0.00 in
14:33 78.4 °F 72.1 °F 30.20 in SSE 2.0 mph 11.0 mph 81 % 0.00 in
14:38 78.8 °F 71.8 °F 30.20 in South 8.0 mph 11.0 mph 79 % 0.00 in
14:43 78.6 °F 71.6 °F 30.20 in SSW 5.0 mph 11.0 mph 79 % 0.00 in
14:48 78.4 °F 71.4 °F 30.20 in SW 7.0 mph 11.0 mph 79 % 0.00 in
14:53 78.4 °F 71.4 °F 30.19 in South 5.0 mph 11.0 mph 79 % 0.00 in
14:58 78.4 °F 71.4 °F 30.19 in South 5.0 mph 12.0 mph 79 % 0.00 in
15:03 78.6 °F 72.3 °F 30.19 in SSW 3.0 mph 12.0 mph 81 % 0.00 in
15:08 79.2 °F 71.8 °F 30.19 in South 7.0 mph 12.0 mph 78 % 0.00 in
15:13 79.5 °F 72.1 °F 30.19 in SE 4.0 mph 11.0 mph 78 % 0.00 in
15:19 79.9 °F 72.0 °F 30.18 in South 6.0 mph 11.0 mph 77 % 0.00 in
15:24 80.1 °F 72.1 °F 30.18 in South 7.0 mph 11.0 mph 77 % 0.00 in
15:29 80.1 °F 72.5 °F 30.18 in SSW 3.0 mph 11.0 mph 78 % 0.00 in
15:34 79.9 °F 72.0 °F 30.17 in SSE 4.0 mph 13.0 mph 77 % 0.00 in
15:39 79.5 °F 71.6 °F 30.17 in SSE 5.0 mph 13.0 mph 77 % 0.00 in
15:44 79.5 °F 72.1 °F 30.17 in South 4.0 mph 13.0 mph 78 % 0.00 in
15:49 79.7 °F 71.8 °F 30.17 in South 10.0 mph 13.0 mph 77 % 0.00 in
15:54 80.1 °F 72.1 °F 30.17 in SW 8.0 mph 13.0 mph 77 % 0.00 in
15:59 80.2 °F 72.0 °F 30.17 in SSW 5.0 mph 11.0 mph 76 % 0.00 in
16:04 80.8 °F 72.1 °F 30.17 in SE 7.0 mph 11.0 mph 75 % 0.00 in
16:09 80.4 °F 71.8 °F 30.17 in SE 3.0 mph 11.0 mph 75 % 0.00 in
16:14 79.9 °F 71.6 °F 30.17 in SSW 5.0 mph 11.0 mph 76 % 0.00 in
16:19 79.5 °F 71.6 °F 30.17 in SSE 2.0 mph 11.0 mph 77 % 0.00 in
16:24 79.3 °F 71.4 °F 30.17 in SW 4.0 mph 9.0 mph 77 % 0.00 in
16:29 79.7 °F 71.4 °F 30.17 in SSW 3.0 mph 9.0 mph 76 % 0.00 in
16:34 79.9 °F 71.2 °F 30.17 in SE 5.0 mph 9.0 mph 75 % 0.00 in
16:39 79.5 °F 70.2 °F 30.17 in SW 5.0 mph 9.0 mph 73 % 0.00 in
16:44 79.2 °F 69.8 °F 30.17 in SSW 4.0 mph 9.0 mph 73 % 0.00 in
16:49 78.6 °F 69.3 °F 30.17 in WSW 3.0 mph 9.0 mph 73 % 0.00 in
16:54 78.4 °F 69.4 °F 30.17 in SSW 3.0 mph 9.0 mph 74 % 0.00 in
16:59 78.6 °F 69.3 °F 30.17 in WSW 3.0 mph 9.0 mph 73 % 0.00 in
17:04 78.6 °F 69.3 °F 30.17 in SW 4.0 mph 8.0 mph 73 % 0.00 in
17:09 78.4 °F 69.1 °F 30.17 in South 4.0 mph 8.0 mph 73 % 0.00 in
17:14 78.3 °F 69.3 °F 30.17 in South 3.0 mph 8.0 mph 74 % 0.00 in
17:19 78.3 °F 69.3 °F 30.17 in South 5.0 mph 7.0 mph 74 % 0.00 in
17:24 78.1 °F 69.4 °F 30.17 in SSE 6.0 mph 7.0 mph 75 % 0.00 in
17:29 77.9 °F 69.3 °F 30.17 in SSE 5.0 mph 9.0 mph 75 % 0.00 in
17:34 77.7 °F 69.1 °F 30.17 in SW 8.0 mph 9.0 mph 75 % 0.00 in
17:39 77.4 °F 68.9 °F 30.17 in SSW 1.0 mph 12.0 mph 75 % 0.00 in
17:44 77.4 °F 69.3 °F 30.17 in SSW 5.0 mph 12.0 mph 76 % 0.00 in
17:49 77.0 °F 68.9 °F 30.17 in South 3.0 mph 12.0 mph 76 % 0.00 in
17:54 76.6 °F 68.9 °F 30.17 in South 2.0 mph 9.0 mph 77 % 0.00 in
17:59 76.3 °F 68.9 °F 30.17 in SSW 2.0 mph 6.0 mph 78 % 0.00 in
18:04 75.9 °F 68.5 °F 30.17 in South 2.0 mph 10.0 mph 78 % 0.00 in
18:09 75.6 °F 68.5 °F 30.17 in SW 2.0 mph 10.0 mph 79 % 0.00 in
18:14 75.4 °F 68.7 °F 30.17 in SSE 1.0 mph 10.0 mph 80 % 0.00 in
18:19 75.0 °F 68.4 °F 30.17 in SSW 1.0 mph 7.0 mph 80 % 0.00 in
18:24 74.7 °F 68.4 °F 30.17 in Calm   7.0 mph 81 % 0.00 in
18:29 74.3 °F 68.0 °F 30.17 in Calm   7.0 mph 81 % 0.00 in
18:34 73.9 °F 68.2 °F 30.17 in Calm   3.0 mph 82 % 0.00 in
18:39 73.6 °F 68.4 °F 30.17 in SW 1.0 mph 3.0 mph 84 % 0.00 in
18:44 73.2 °F 69.1 °F 30.18 in WSW 1.0 mph 3.0 mph 87 % 0.00 in
18:49 73.0 °F 69.3 °F 30.18 in Calm   3.0 mph 88 % 0.00 in
18:54 72.9 °F 69.1 °F 30.17 in SSW 1.0 mph 2.0 mph 88 % 0.00 in
18:59 72.5 °F 69.1 °F 30.17 in Calm   2.0 mph 89 % 0.00 in
19:04 72.1 °F 69.1 °F 30.17 in Calm   2.0 mph 90 % 0.00 in
19:09 72.0 °F 68.9 °F 30.17 in Calm   2.0 mph 90 % 0.00 in
19:14 71.6 °F 68.9 °F 30.17 in SSE 1.0 mph 1.0 mph 91 % 0.00 in
19:19 71.4 °F 68.9 °F 30.17 in Calm   2.0 mph 92 % 0.00 in
19:24 71.1 °F 68.5 °F 30.17 in SSE 1.0 mph 2.0 mph 92 % 0.00 in
19:29 70.9 °F 68.7 °F 30.17 in SSE 1.0 mph 2.0 mph 93 % 0.00 in
19:34 70.5 °F 68.0 °F 30.17 in Calm   2.0 mph 92 % 0.00 in
19:39 70.3 °F 67.8 °F 30.17 in Calm   2.0 mph 92 % 0.00 in
19:44 70.2 °F 67.6 °F 30.17 in Calm   2.0 mph 92 % 0.00 in
19:49 70.2 °F 67.6 °F 30.17 in South 1.0 mph 2.0 mph 92 % 0.00 in
19:54 70.0 °F 67.5 °F 30.17 in Calm   2.0 mph 92 % 0.00 in
19:59 69.6 °F 67.3 °F 30.17 in Calm   2.0 mph 92 % 0.00 in
20:04 69.4 °F 67.1 °F 30.17 in Calm   2.0 mph 92 % 0.00 in
20:09 69.3 °F 66.9 °F 30.17 in Calm   1.0 mph 92 % 0.00 in
20:14 69.1 °F 66.7 °F 30.17 in SE 1.0 mph   92 % 0.00 in
20:19 68.9 °F 66.7 °F 30.17 in South 1.0 mph 1.0 mph 93 % 0.00 in
20:24 68.9 °F 66.7 °F 30.17 in South 1.0 mph 3.0 mph 93 % 0.00 in
20:29 68.9 °F 66.7 °F 30.17 in SSE 2.0 mph 3.0 mph 93 % 0.00 in
20:34 69.1 °F 66.9 °F 30.17 in South 4.0 mph 4.0 mph 93 % 0.00 in
20:39 69.1 °F 66.9 °F 30.17 in SSE 2.0 mph 5.0 mph 93 % 0.00 in
20:44 69.1 °F 66.9 °F 30.18 in South 3.0 mph 5.0 mph 93 % 0.00 in
20:49 69.1 °F 66.9 °F 30.17 in SE 2.0 mph 5.0 mph 93 % 0.00 in
20:54 69.1 °F 66.9 °F 30.17 in South 5.0 mph 5.0 mph 93 % 0.00 in
20:59 69.3 °F 67.1 °F 30.17 in SSW 2.0 mph 6.0 mph 93 % 0.00 in
21:04 69.3 °F 67.5 °F 30.17 in SSE 2.0 mph 6.0 mph 94 % 0.00 in
21:09 69.1 °F 67.3 °F 30.17 in SSE 2.0 mph 6.0 mph 94 % 0.00 in
21:14 69.1 °F 67.3 °F 30.18 in SE 1.0 mph 5.0 mph 94 % 0.00 in
21:19 69.1 °F 67.6 °F 30.18 in South 3.0 mph 5.0 mph 95 % 0.00 in
21:24 69.1 °F 67.6 °F 30.18 in SSE 2.0 mph 4.0 mph 95 % 0.00 in
21:29 68.9 °F 67.5 °F 30.18 in SSW 3.0 mph 4.0 mph 95 % 0.00 in
21:34 68.9 °F 67.6 °F 30.18 in SSW 2.0 mph 5.0 mph 96 % 0.00 in
21:39 69.1 °F 67.8 °F 30.18 in South 4.0 mph 5.0 mph 96 % 0.00 in
21:44 69.3 °F 68.0 °F 30.18 in SSE 2.0 mph 5.0 mph 96 % 0.00 in
21:49 69.3 °F 68.0 °F 30.18 in East 3.0 mph 6.0 mph 96 % 0.00 in
21:54 69.4 °F 68.5 °F 30.18 in SSE 4.0 mph 6.0 mph 97 % 0.00 in
21:59 69.4 °F 68.5 °F 30.18 in SSE 4.0 mph 6.0 mph 97 % 0.00 in
22:04 69.6 °F 68.7 °F 30.18 in South 3.0 mph 7.0 mph 97 % 0.00 in
22:09 69.6 °F 68.7 °F 30.18 in South 4.0 mph 7.0 mph 97 % 0.00 in
22:14 69.6 °F 68.7 °F 30.18 in South 4.0 mph 9.0 mph 97 % 0.00 in
22:19 69.6 °F 68.7 °F 30.17 in SE 4.0 mph 9.0 mph 97 % 0.00 in
22:24 69.6 °F 68.7 °F 30.17 in South 4.0 mph 9.0 mph 97 % 0.00 in
22:29 69.4 °F 68.5 °F 30.17 in SSE 2.0 mph 8.0 mph 97 % 0.00 in
22:34 69.4 °F 68.5 °F 30.17 in SSE 4.0 mph 8.0 mph 97 % 0.00 in
22:39 69.4 °F 68.5 °F 30.17 in ESE 5.0 mph 11.0 mph 97 % 0.00 in
22:44 69.4 °F 68.5 °F 30.16 in SSE 5.0 mph 11.0 mph 97 % 0.00 in
22:49 69.4 °F 68.5 °F 30.16 in South 4.0 mph 11.0 mph 97 % 0.00 in
22:54 69.3 °F 68.4 °F 30.16 in SE 3.0 mph 9.0 mph 97 % 0.00 in
22:59 69.3 °F 68.4 °F 30.16 in SSE 5.0 mph 9.0 mph 97 % 0.00 in
23:04 69.3 °F 68.4 °F 30.16 in SSW 7.0 mph 12.0 mph 97 % 0.00 in
23:09 69.3 °F 68.4 °F 30.16 in SE 8.0 mph 12.0 mph 97 % 0.00 in
23:14 69.3 °F 68.4 °F 30.16 in South 10.0 mph 12.0 mph 97 % 0.00 in
23:19 69.3 °F 68.4 °F 30.16 in South 7.0 mph 12.0 mph 97 % 0.00 in
23:24 69.3 °F 68.4 °F 30.16 in SSE 6.0 mph 13.0 mph 97 % 0.00 in
23:29 69.3 °F 68.4 °F 30.16 in South 4.0 mph 13.0 mph 97 % 0.00 in
23:34 69.3 °F 68.4 °F 30.16 in SSW 3.0 mph 13.0 mph 97 % 0.00 in
23:39 69.3 °F 68.4 °F 30.15 in South 3.0 mph 10.0 mph 97 % 0.00 in
23:44 69.3 °F 68.4 °F 30.15 in South 3.0 mph 10.0 mph 97 % 0.00 in
23:49 69.3 °F 68.4 °F 30.14 in SSE 2.0 mph 8.0 mph 97 % 0.00 in
23:54 69.1 °F 68.2 °F 30.14 in SSW 7.0 mph 8.0 mph 97 % 0.00 in
23:59 69.1 °F 68.2 °F 30.14 in SSW 2.0 mph 8.0 mph 97 % 0.00 in
Spring, Texas: Villages of Bridgestone
Compliments of Weather Underground - 2.75 mb

Script developed by  Jim McMurry - jmcmurry@mwt.net Adapted for the template by  Wim van der Kuil - Leuven-Template.eu

You find our weather info also at:

UK Metoffice

WeatherCloud

Weather Underground

Mid-South Weather Network

AWEKAS

Citizen Weather Observer Program (CWOP)

HAMweather, WeatherForYou, PWS Weather

Equipment we use:

Weather-station
Davis Vantage Vue

Weather-program
Meteohub

Weather-server
Debian 7.9 x86 (Guest)

Provider
DreamHost

Davis Vantage Vue

Meteohub

Debian 7.9 x86 (Guest)

DreamHost